Time;durP1;ratioP1;P1;durP2;ratioP2;P2;SDS_P1;SDS_P2;PMS_P1;PMS_P2;Temp;Humidity;BMP_temperature;BMP_pressure;BME280_temperature;BME280_humidity;BME280_pressure;Samples;Min_cycle;Max_cycle;Signal;HPM_P1;HPM_P2
2024/04/04 00:02:07;;;;;;;5.00;1.70;;;;;;;10.13;59.13;98650.67;106766;1268;67615;-38
2024/04/04 00:04:35;;;;;;;5.80;1.50;;;;;;;10.06;59.32;98648.22;106753;1263;72721;-39
2024/04/04 00:07:03;;;;;;;5.10;1.70;;;;;;;10.08;59.42;98651.55;106803;1264;60427;-39
2024/04/04 00:09:30;;;;;;;3.90;1.90;;;;;;;10.04;59.37;98653.55;106856;1264;60320;-38
2024/04/04 00:11:58;;;;;;;5.10;2.30;;;;;;;10.01;59.51;98654.44;105254;1263;1003834;-39
2024/04/04 00:14:26;;;;;;;2.90;1.70;;;;;;;9.91;59.60;98644.45;106784;1264;68944;-39
2024/04/04 00:16:54;;;;;;;4.20;1.50;;;;;;;9.88;59.66;98649.52;106783;1263;72729;-39
2024/04/04 00:19:21;;;;;;;5.90;1.70;;;;;;;9.80;59.75;98653.38;106838;1264;60286;-39
2024/04/04 00:21:49;;;;;;;3.70;1.80;;;;;;;9.72;59.95;98653.37;106825;1264;60329;-38
2024/04/04 00:24:16;;;;;;;4.40;1.80;;;;;;;9.65;60.30;98652.61;106829;1262;73867;-39
2024/04/04 00:26:44;;;;;;;4.90;2.00;;;;;;;9.58;60.47;98653.21;106843;1263;66279;-39
2024/04/04 00:29:11;;;;;;;3.30;1.90;;;;;;;9.52;60.61;98652.52;107026;1261;72650;-38
2024/04/04 00:31:39;;;;;;;4.50;1.70;;;;;;;9.47;60.85;98652.23;107003;1260;61631;-38
2024/04/04 00:34:06;;;;;;;5.00;2.00;;;;;;;9.49;60.92;98655.27;107027;1260;60293;-38
2024/04/04 00:36:34;;;;;;;5.60;1.80;;;;;;;9.52;61.09;98657.70;107055;1259;73817;-38
2024/04/04 00:39:01;;;;;;;4.70;1.60;;;;;;;9.49;61.17;98657.97;106957;1266;67038;-38
2024/04/04 00:41:28;;;;;;;3.90;1.50;;;;;;;9.47;61.18;98656.87;106912;1260;72697;-38
2024/04/04 00:43:56;;;;;;;4.10;1.60;;;;;;;9.43;61.40;98660.30;106964;1266;60466;-39
2024/04/04 00:46:24;;;;;;;2.90;1.80;;;;;;;9.38;61.52;98655.99;107021;1260;60495;-39
2024/04/04 00:48:52;;;;;;;2.90;1.50;;;;;;;9.33;61.68;98660.03;107031;1260;73896;-39
2024/04/04 00:51:20;;;;;;;2.60;1.60;;;;;;;9.27;62.01;98657.95;106931;1260;66652;-39
2024/04/04 00:53:48;;;;;;;2.70;1.70;;;;;;;9.21;62.23;98660.73;107258;1258;71416;-39
2024/04/04 00:56:15;;;;;;;5.00;2.00;;;;;;;9.14;62.57;98660.10;107235;1257;60411;-39
2024/04/04 00:58:43;;;;;;;4.60;2.30;;;;;;;9.08;62.85;98658.64;107267;1257;60345;-39
2024/04/04 01:01:12;;;;;;;5.80;1.30;;;;;;;9.10;62.94;98655.25;107295;1257;73927;-39
2024/04/04 01:03:40;;;;;;;2.90;1.70;;;;;;;9.17;63.05;98658.90;107328;1257;67605;-39
2024/04/04 01:06:08;;;;;;;5.70;1.80;;;;;;;9.13;63.03;98663.17;107203;1257;72694;-39
2024/04/04 01:08:35;;;;;;;4.70;1.70;;;;;;;9.08;62.98;98665.73;107128;1260;60276;-39
2024/04/04 01:11:03;;;;;;;4.30;2.00;;;;;;;9.02;63.14;98665.89;107151;1256;60463;-39
2024/04/04 01:13:30;;;;;;;4.40;1.90;;;;;;;8.97;63.16;98673.09;107180;1257;74376;-39
2024/04/04 01:15:59;;;;;;;3.60;1.70;;;;;;;8.93;63.43;98673.34;107196;1257;67505;-39
2024/04/04 01:18:26;;;;;;;3.60;1.90;;;;;;;8.86;63.58;98672.15;107247;1257;71354;-39
2024/04/04 01:20:54;;;;;;;3.10;1.80;;;;;;;8.79;63.85;98681.39;107337;1256;60274;-39
2024/04/04 01:23:21;;;;;;;3.60;1.70;;;;;;;8.74;64.30;98686.64;107155;1257;60514;-39
2024/04/04 01:25:48;;;;;;;3.00;1.50;;;;;;;8.74;64.76;98686.87;107212;1257;73943;-39
2024/04/04 01:28:16;;;;;;;3.10;1.60;;;;;;;8.79;65.02;98684.55;107240;1257;66592;-39
2024/04/04 01:30:43;;;;;;;5.40;1.70;;;;;;;8.82;65.18;98688.23;107261;1257;72079;-39
2024/04/04 01:33:11;;;;;;;5.10;1.80;;;;;;;8.86;65.18;98691.60;107272;1257;60470;-39
2024/04/04 01:35:38;;;;;;;2.70;1.50;;;;;;;8.88;65.33;98692.25;107252;1256;60629;-39
2024/04/04 01:38:07;;;;;;;3.00;1.80;;;;;;;8.88;65.23;98691.78;107249;1256;73959;-39
2024/04/04 01:40:34;;;;;;;5.40;1.70;;;;;;;8.85;65.80;98694.37;107352;1256;67548;-39
2024/04/04 01:43:02;;;;;;;4.90;1.80;;;;;;;8.83;66.10;98699.36;107266;1256;71425;-39
2024/04/04 01:45:30;;;;;;;2.60;1.80;;;;;;;8.89;66.02;98697.81;107226;1257;61741;-39
2024/04/04 01:47:57;;;;;;;4.90;1.90;;;;;;;8.94;65.92;98703.09;107261;1257;60566;-39
2024/04/04 01:50:25;;;;;;;5.10;2.10;;;;;;;8.93;65.86;98705.16;107260;1258;72679;-39
2024/04/04 01:52:52;;;;;;;3.30;1.80;;;;;;;8.91;65.61;98710.52;107188;1257;66617;-39
2024/04/04 01:55:20;;;;;;;3.30;1.60;;;;;;;8.87;65.37;98711.00;107119;1257;72697;-39
2024/04/04 01:57:47;;;;;;;4.30;2.10;;;;;;;8.82;65.40;98718.26;107240;1260;61221;-39
2024/04/04 02:00:15;;;;;;;3.00;1.80;;;;;;;8.77;65.56;98721.66;107225;1257;60489;-39
2024/04/04 02:02:43;;;;;;;2.90;1.70;;;;;;;8.75;65.74;98730.06;107281;1257;73851;-39
2024/04/04 02:05:10;;;;;;;3.60;1.70;;;;;;;8.75;66.01;98733.06;107204;1257;67928;-39
2024/04/04 02:07:37;;;;;;;2.60;1.50;;;;;;;8.68;66.05;98732.87;107239;1257;72399;-39
2024/04/04 02:10:05;;;;;;;2.80;1.90;;;;;;;8.61;66.01;98736.31;107261;1257;60327;-39
2024/04/04 02:12:32;;;;;;;2.70;1.80;;;;;;;8.55;66.23;98745.79;107219;1257;60588;-39
2024/04/04 02:15:00;;;;;;;4.50;1.60;;;;;;;8.50;66.37;98750.48;107193;1257;73896;-39
2024/04/04 02:17:27;;;;;;;5.10;2.40;;;;;;;8.50;66.50;98753.48;107258;1257;67921;-39
2024/04/04 02:19:55;;;;;;;2.90;1.90;;;;;;;8.52;66.34;98759.09;107218;1257;72694;-39
2024/04/04 02:22:22;;;;;;;3.90;1.70;;;;;;;8.49;66.36;98768.14;107262;1257;60338;-39
2024/04/04 02:24:50;;;;;;;2.70;1.80;;;;;;;8.48;66.38;98768.17;107237;1257;60345;-39
2024/04/04 02:27:17;;;;;;;5.10;1.80;;;;;;;8.47;66.28;98770.49;107185;1260;74220;-39
2024/04/04 02:29:45;;;;;;;2.50;1.90;;;;;;;8.48;66.24;98768.95;107124;1257;67587;-39
2024/04/04 02:32:12;;;;;;;2.20;1.80;;;;;;;8.47;65.88;98772.34;107120;1257;72815;-39
2024/04/04 02:34:40;;;;;;;3.10;1.60;;;;;;;8.42;64.64;98775.34;107230;1256;60365;-39
2024/04/04 02:37:08;;;;;;;1.80;1.40;;;;;;;8.42;63.67;98779.36;107237;1257;60290;-39
2024/04/04 02:39:35;;;;;;;2.20;1.50;;;;;;;8.38;62.47;98780.44;107265;1257;71660;-39
2024/04/04 02:42:03;;;;;;;2.20;1.30;;;;;;;8.30;62.13;98790.55;107170;1256;66317;-39
2024/04/04 02:44:31;;;;;;;1.90;1.60;;;;;;;8.21;61.34;98793.61;107158;1257;72762;-39
2024/04/04 02:46:59;;;;;;;2.00;1.40;;;;;;;8.12;60.80;98798.66;107047;1257;60138;-39
2024/04/04 02:49:26;;;;;;;2.70;1.50;;;;;;;8.03;60.74;98801.96;107267;1257;60390;-39
2024/04/04 02:51:53;;;;;;;1.20;1.10;;;;;;;7.94;60.67;98810.34;107186;1257;73055;-39
2024/04/04 02:54:21;;;;;;;1.60;1.20;;;;;;;7.84;60.45;98807.75;107285;1257;67919;-39
2024/04/04 02:56:48;;;;;;;3.20;1.50;;;;;;;7.75;60.41;98809.40;107334;1257;72679;-39
2024/04/04 02:59:16;;;;;;;2.20;1.50;;;;;;;7.66;60.47;98814.77;106566;1257;1003412;-39
2024/04/04 03:01:43;;;;;;;2.90;1.60;;;;;;;7.60;60.69;98817.35;105803;1256;1005457;-39
2024/04/04 03:04:11;;;;;;;2.40;1.30;;;;;;;7.56;61.03;98820.64;107322;1257;73956;-39
2024/04/04 03:06:38;;;;;;;4.50;1.30;;;;;;;7.54;60.66;98825.69;106610;1257;1003723;-39
2024/04/04 03:09:08;;;;;;;2.00;1.40;;;;;;;7.50;60.15;98829.14;107344;1257;72921;-39
2024/04/04 03:11:36;;;;;;;1.70;1.20;;;;;;;7.43;59.73;98835.14;107370;1256;60414;-39
2024/04/04 03:14:04;;;;;;;1.50;1.20;;;;;;;7.35;58.78;98843.14;107342;1256;60113;-39
2024/04/04 03:16:31;;;;;;;1.60;1.20;;;;;;;7.27;58.45;98843.88;107230;1260;73887;-39
2024/04/04 03:18:59;;;;;;;2.90;1.20;;;;;;;7.20;57.97;98844.24;107336;1256;66294;-39
2024/04/04 03:21:26;;;;;;;2.60;1.20;;;;;;;7.14;58.17;98851.80;107358;1256;72706;-39
2024/04/04 03:23:53;;;;;;;1.60;1.20;;;;;;;7.09;58.15;98853.98;107253;1257;59697;-39
2024/04/04 03:26:21;;;;;;;2.60;1.10;;;;;;;7.03;57.60;98856.44;107264;1257;60191;-39
2024/04/04 03:28:48;;;;;;;1.60;1.10;;;;;;;6.95;57.67;98866.73;107268;1257;73814;-39
2024/04/04 03:31:16;;;;;;;2.50;1.10;;;;;;;6.86;57.58;98867.98;107279;1257;66387;-39
2024/04/04 03:33:43;;;;;;;1.90;1.00;;;;;;;6.79;57.49;98864.16;107287;1257;72658;-38
2024/04/04 03:36:10;;;;;;;1.20;1.00;;;;;;;6.72;57.61;98866.21;107216;1260;60335;-38
2024/04/04 03:38:38;;;;;;;1.60;1.00;;;;;;;6.65;57.74;98868.36;107152;1256;60505;-38
2024/04/04 03:41:06;;;;;;;1.60;1.00;;;;;;;6.60;57.79;98871.27;107299;1256;73845;-38
2024/04/04 03:43:33;;;;;;;1.30;1.00;;;;;;;6.54;57.87;98880.83;107369;1257;66492;-38
2024/04/04 03:46:04;;;;;;;2.60;1.10;;;;;;;6.47;57.80;98878.27;107291;1257;71431;-39
2024/04/04 03:48:34;;;;;;;0.80;0.80;;;;;;;6.41;57.77;98882.34;107657;1254;61189;-38
2024/04/04 03:51:01;;;;;;;1.70;0.90;;;;;;;6.34;57.15;98883.80;107674;1254;61108;-38
2024/04/04 03:53:28;;;;;;;1.90;0.90;;;;;;;6.26;57.10;98881.67;107577;1254;73675;-38
2024/04/04 03:55:56;;;;;;;1.80;1.20;;;;;;;6.18;57.03;98884.00;107737;1252;66303;-38
2024/04/04 03:58:26;;;;;;;1.60;0.90;;;;;;;6.14;57.26;98880.95;107670;1254;72827;-38
2024/04/04 04:00:53;;;;;;;1.20;1.00;;;;;;;6.10;57.02;98882.36;107672;1254;61248;-38
2024/04/04 04:03:22;;;;;;;2.00;1.40;;;;;;;6.06;57.13;98884.33;107661;1253;60376;-38
2024/04/04 04:05:50;;;;;;;1.20;0.90;;;;;;;6.03;57.46;98885.16;107551;1257;74648;-38
2024/04/04 04:08:17;;;;;;;2.30;1.00;;;;;;;6.03;57.46;98887.70;107682;1254;67902;-38
2024/04/04 04:10:45;;;;;;;1.40;0.90;;;;;;;6.03;57.47;98895.86;107662;1254;72004;-38
2024/04/04 04:13:13;;;;;;;1.40;1.00;;;;;;;6.02;57.81;98899.41;107577;1254;61343;-38
2024/04/04 04:15:40;;;;;;;1.80;1.10;;;;;;;6.00;57.17;98903.85;107591;1253;61371;-38
2024/04/04 04:18:08;;;;;;;1.10;1.00;;;;;;;5.98;57.16;98907.33;107606;1254;73666;-38
2024/04/04 04:23:22;;;;;;;1.40;1.10;;;;;;;5.98;57.49;98914.55;107533;1254;72722;-39
2024/04/04 04:25:49;;;;;;;1.60;1.20;;;;;;;5.98;57.97;98916.07;107563;1253;61281;-39
2024/04/04 04:28:17;;;;;;;0.90;0.80;;;;;;;5.97;57.71;98918.30;107506;1252;61026;-39
2024/04/04 04:30:44;;;;;;;1.70;0.90;;;;;;;5.97;58.06;98926.74;107587;1256;74665;-39
2024/04/04 04:33:11;;;;;;;1.40;1.10;;;;;;;5.97;57.99;98932.26;107522;1253;66845;-39
2024/04/04 04:35:39;;;;;;;1.70;1.00;;;;;;;5.96;58.05;98935.77;107574;1254;72724;-39
2024/04/04 04:38:07;;;;;;;2.10;1.30;;;;;;;5.95;57.97;98936.89;107554;1253;61221;-39
2024/04/04 04:40:34;;;;;;;1.40;1.20;;;;;;;5.97;58.25;98938.23;107635;1254;61127;-39
2024/04/04 04:43:01;;;;;;;1.70;1.00;;;;;;;5.96;58.11;98940.61;107549;1252;74859;-39
2024/04/04 04:45:29;;;;;;;3.10;1.30;;;;;;;5.95;58.41;98943.05;107693;1254;67677;-39
2024/04/04 04:47:57;;;;;;;2.20;1.20;;;;;;;5.97;58.56;98946.08;107720;1254;72319;-38
2024/04/04 04:50:24;;;;;;;1.60;1.00;;;;;;;5.99;58.72;98946.88;107571;1253;61113;-39
2024/04/04 04:52:51;;;;;;;5.20;1.20;;;;;;;6.02;58.48;98950.20;107693;1253;60392;-39
2024/04/04 04:55:19;;;;;;;1.80;1.30;;;;;;;6.06;58.89;98951.09;107672;1252;73387;-39
2024/04/04 04:57:46;;;;;;;2.20;1.20;;;;;;;6.11;58.43;98950.91;107668;1254;67631;-39
2024/04/04 05:00:14;;;;;;;1.50;1.20;;;;;;;6.15;58.56;98952.72;107639;1254;72689;-39
2024/04/04 05:02:43;;;;;;;2.00;1.20;;;;;;;6.19;58.23;98959.70;107576;1253;61361;-39
2024/04/04 05:05:15;;;;;;;1.80;1.20;;;;;;;6.22;58.67;98959.36;107654;1253;61182;-39
2024/04/04 05:07:42;;;;;;;2.30;1.40;;;;;;;6.22;58.47;98965.99;107608;1254;74620;-39
2024/04/04 05:10:13;;;;;;;1.40;1.10;;;;;;;6.22;58.64;98963.08;107543;1254;67963;-38
2024/04/04 05:12:40;;;;;;;1.50;0.90;;;;;;;6.24;58.61;98966.30;107555;1253;72691;-38
2024/04/04 05:15:08;;;;;;;1.60;1.30;;;;;;;6.25;58.09;98962.00;107563;1254;61349;-39
2024/04/04 05:17:35;;;;;;;2.70;1.20;;;;;;;6.34;57.97;98971.42;107613;1254;59254;-38
2024/04/04 05:20:04;;;;;;;1.30;1.20;;;;;;;6.39;57.71;98974.50;107584;1252;72377;-38
2024/04/04 05:22:32;;;;;;;1.10;0.90;;;;;;;6.44;57.78;98978.02;107706;1254;67140;-38
2024/04/04 05:24:59;;;;;;;1.40;1.10;;;;;;;6.49;57.70;98983.02;107644;1254;71479;-39
2024/04/04 05:27:26;;;;;;;1.50;1.10;;;;;;;6.52;57.39;98987.66;107683;1254;61291;-39
2024/04/04 05:29:54;;;;;;;2.70;1.20;;;;;;;6.53;57.07;98991.52;107680;1253;61445;-38
2024/04/04 05:32:21;;;;;;;1.60;1.10;;;;;;;6.56;56.94;98994.75;107498;1254;73421;-38
2024/04/04 05:34:50;;;;;;;1.80;1.70;;;;;;;6.58;56.98;98991.50;107696;1253;67888;-38
2024/04/04 05:37:18;;;;;;;1.60;1.10;;;;;;;6.58;56.78;98994.20;107655;1253;71645;-38
2024/04/04 05:39:45;;;;;;;1.60;1.00;;;;;;;6.56;56.96;98994.76;107654;1254;61165;-38
2024/04/04 05:42:13;;;;;;;1.60;1.00;;;;;;;6.57;57.07;98996.02;107666;1253;61243;-38
2024/04/04 05:44:40;;;;;;;1.50;1.10;;;;;;;6.57;56.77;99002.34;107741;1252;74617;-38
2024/04/04 05:47:08;;;;;;;1.20;1.00;;;;;;;6.57;56.76;99006.11;107584;1252;68044;-38
2024/04/04 05:49:35;;;;;;;1.30;0.90;;;;;;;6.59;56.77;99008.14;107560;1254;72060;-38
2024/04/04 05:52:03;;;;;;;1.60;1.20;;;;;;;6.62;57.08;99012.23;107654;1253;61222;-38
2024/04/04 05:54:31;;;;;;;1.50;1.10;;;;;;;6.66;57.02;99013.58;107610;1252;59809;-38
2024/04/04 05:56:58;;;;;;;3.80;1.00;;;;;;;6.72;57.14;99016.39;107592;1253;73399;-38
2024/04/04 05:59:26;;;;;;;1.40;1.10;;;;;;;6.77;56.91;99020.39;107680;1252;67987;-38
2024/04/04 06:01:53;;;;;;;1.60;1.10;;;;;;;6.81;56.94;99028.48;107613;1254;72736;-38
2024/04/04 06:04:21;;;;;;;5.00;1.00;;;;;;;6.85;57.04;99029.77;107500;1254;61301;-38
2024/04/04 06:06:54;;;;;;;1.20;0.90;;;;;;;6.92;56.51;99032.51;107615;1253;61142;-38
2024/04/04 06:09:22;;;;;;;1.00;0.90;;;;;;;6.96;55.47;99035.77;107672;1254;73385;-38
2024/04/04 06:11:49;;;;;;;1.30;1.10;;;;;;;6.96;55.02;99036.07;107575;1254;68054;-38
2024/04/04 06:14:16;;;;;;;2.10;1.30;;;;;;;6.90;54.90;99037.73;107691;1253;71817;-38
2024/04/04 06:16:44;;;;;;;1.20;1.00;;;;;;;6.84;55.38;99040.34;107672;1254;60457;-38
2024/04/04 06:19:11;;;;;;;2.00;1.20;;;;;;;6.83;55.80;99045.87;107660;1256;62166;-38
2024/04/04 06:21:39;;;;;;;1.20;1.00;;;;;;;6.81;55.67;99047.21;107628;1252;76917;-38
2024/04/04 06:24:07;;;;;;;1.60;1.20;;;;;;;6.77;55.23;99048.15;107566;1254;67931;-38
2024/04/04 06:26:34;;;;;;;2.20;1.20;;;;;;;6.73;55.46;99053.90;107620;1254;72764;-38
2024/04/04 06:29:02;;;;;;;2.90;1.10;;;;;;;6.73;55.70;99055.37;107562;1257;61111;-38
2024/04/04 06:31:29;;;;;;;1.40;1.10;;;;;;;6.78;54.96;99063.27;107695;1252;60508;-38
2024/04/04 06:33:57;;;;;;;1.90;1.20;;;;;;;6.85;54.60;99061.70;107570;1254;75037;-38
2024/04/04 06:36:24;;;;;;;1.00;0.90;;;;;;;6.92;54.45;99067.45;107679;1254;68366;-38
2024/04/04 06:38:55;;;;;;;2.20;1.10;;;;;;;6.97;54.27;99070.23;107685;1257;70849;-38
2024/04/04 06:41:22;;;;;;;1.50;1.20;;;;;;;6.98;53.72;99070.55;107682;1253;61608;-38
2024/04/04 06:43:50;;;;;;;3.20;1.40;;;;;;;6.96;53.87;99076.48;107594;1256;61119;-38
2024/04/04 06:46:17;;;;;;;3.60;1.70;;;;;;;6.91;53.82;99077.20;107644;1253;75293;-39
2024/04/04 06:48:45;;;;;;;2.30;1.10;;;;;;;6.91;54.16;99078.27;107694;1253;67061;-39
2024/04/04 06:51:13;;;;;;;1.90;1.10;;;;;;;6.96;54.46;99084.20;107641;1256;72800;-39
2024/04/04 06:53:40;;;;;;;0.90;0.80;;;;;;;7.02;54.32;99086.91;107742;1252;61054;-38
2024/04/04 06:56:08;;;;;;;2.60;1.10;;;;;;;7.09;54.05;99094.89;107683;1253;62278;-39
2024/04/04 06:58:35;;;;;;;1.00;0.80;;;;;;;7.15;53.52;99099.38;107663;1254;75094;-39
2024/04/04 07:01:03;;;;;;;1.40;1.00;;;;;;;7.20;53.22;99102.91;107692;1254;68188;-38
2024/04/04 07:03:31;;;;;;;1.60;1.00;;;;;;;7.25;53.27;99107.58;107581;1254;74936;-39
2024/04/04 07:05:59;;;;;;;1.50;1.10;;;;;;;7.33;52.98;99106.88;107610;1254;61304;-39
2024/04/04 07:08:27;;;;;;;1.40;1.10;;;;;;;7.39;52.65;99113.38;107537;1252;62102;-39
2024/04/04 07:11:09;;;;;;;1.40;1.10;;;;;;;7.43;52.23;99114.00;107611;1254;73470;-39
2024/04/04 07:13:37;;;;;;;3.20;1.40;;;;;;;7.47;52.14;99113.49;107564;1253;67775;-39
2024/04/04 07:16:04;;;;;;;2.10;1.10;;;;;;;7.53;52.15;99114.98;107640;1254;71432;-39
2024/04/04 07:18:32;;;;;;;1.80;0.80;;;;;;;7.58;50.90;99123.66;107554;1254;60375;-39
2024/04/04 07:21:00;;;;;;;2.00;0.80;;;;;;;7.63;50.64;99122.09;107589;1258;60379;-39
2024/04/04 07:23:28;;;;;;;1.10;0.90;;;;;;;7.67;49.61;99119.35;107742;1257;74725;-39
2024/04/04 07:25:56;;;;;;;2.10;1.10;;;;;;;7.72;49.55;99129.13;107604;1254;70588;-39
2024/04/04 07:28:24;;;;;;;1.80;0.90;;;;;;;7.84;49.68;99128.83;107695;1253;72733;-39
2024/04/04 07:30:54;;;;;;;1.70;1.10;;;;;;;8.02;49.16;99134.98;107679;1253;61409;-39
2024/04/04 07:33:22;;;;;;;1.00;0.90;;;;;;;8.21;49.21;99134.61;107587;1256;61128;-39
2024/04/04 07:35:50;;;;;;;0.90;0.80;;;;;;;8.37;48.22;99146.27;107549;1254;73527;-39
2024/04/04 07:38:17;;;;;;;1.10;0.90;;;;;;;8.46;48.32;99150.50;107573;1256;69820;-39
2024/04/04 07:40:46;;;;;;;1.00;0.90;;;;;;;8.52;47.70;99151.14;107524;1254;71472;-39
2024/04/04 07:43:13;;;;;;;2.30;0.90;;;;;;;8.53;47.24;99154.92;107703;1252;61311;-39
2024/04/04 07:45:41;;;;;;;1.30;1.00;;;;;;;8.53;47.05;99154.60;107680;1256;61269;-39
2024/04/04 07:48:11;;;;;;;1.60;1.10;;;;;;;8.56;47.47;99155.30;107643;1254;73463;-39
2024/04/04 07:50:40;;;;;;;1.80;1.20;;;;;;;8.65;47.82;99162.79;107556;1253;69663;-39
2024/04/04 07:53:08;;;;;;;3.50;0.90;;;;;;;8.76;47.61;99163.88;107702;1256;73073;-39
2024/04/04 07:55:37;;;;;;;1.30;1.00;;;;;;;8.87;47.53;99158.27;107552;1254;61047;-39
2024/04/04 07:58:04;;;;;;;1.30;1.20;;;;;;;8.95;47.41;99166.55;107669;1254;61089;-39
2024/04/04 08:00:31;;;;;;;3.40;1.20;;;;;;;8.95;46.72;99169.17;107700;1252;75076;-39
2024/04/04 08:02:59;;;;;;;1.80;1.10;;;;;;;8.94;47.92;99172.27;107596;1253;68349;-39
2024/04/04 08:05:30;;;;;;;1.00;0.90;;;;;;;9.03;47.77;99175.77;107677;1254;73059;-39
2024/04/04 08:07:58;;;;;;;1.10;0.90;;;;;;;9.10;47.63;99179.94;107705;1254;61093;-39
2024/04/04 08:10:26;;;;;;;1.20;0.90;;;;;;;9.15;47.26;99183.43;107690;1256;61195;-39
2024/04/04 08:12:55;;;;;;;1.20;1.10;;;;;;;9.24;47.52;99187.89;107578;1252;74695;-39
2024/04/04 08:15:23;;;;;;;1.20;1.00;;;;;;;9.34;47.28;99192.13;107687;1256;67947;-39
2024/04/04 08:17:51;;;;;;;0.80;0.80;;;;;;;9.44;47.13;99193.41;107699;1254;71387;-39
2024/04/04 08:20:19;;;;;;;1.00;0.90;;;;;;;9.50;47.08;99196.48;107574;1254;61317;-38
2024/04/04 08:22:47;;;;;;;1.80;0.80;;;;;;;9.63;46.68;99198.13;107541;1253;61234;-38
2024/04/04 08:25:14;;;;;;;1.60;0.90;;;;;;;9.71;46.45;99202.92;107494;1254;75040;-38
2024/04/04 08:27:44;;;;;;;2.00;1.00;;;;;;;9.76;46.03;99200.61;107652;1254;68003;-38
2024/04/04 08:30:11;;;;;;;1.90;1.20;;;;;;;9.80;46.51;99192.80;107590;1254;71502;-38
2024/04/04 08:32:39;;;;;;;1.70;1.30;;;;;;;9.87;46.38;99199.45;107623;1253;61432;-38
2024/04/04 08:35:07;;;;;;;1.10;1.00;;;;;;;9.95;46.51;99195.48;107583;1254;60157;-38
2024/04/04 08:37:34;;;;;;;2.10;1.10;;;;;;;10.02;45.92;99202.19;107638;1254;75089;-38
2024/04/04 08:40:06;;;;;;;1.30;0.90;;;;;;;9.98;45.21;99198.80;107643;1254;66670;-39
2024/04/04 08:42:34;;;;;;;1.40;1.00;;;;;;;9.97;45.24;99197.70;107592;1253;72512;-39
2024/04/04 08:45:01;;;;;;;1.40;1.20;;;;;;;10.06;45.43;99192.27;107537;1254;61353;-39
2024/04/04 08:47:29;;;;;;;1.60;1.10;;;;;;;10.14;44.96;99184.23;107649;1253;61084;-39
2024/04/04 08:49:56;;;;;;;1.20;1.10;;;;;;;10.23;45.07;99183.48;107414;1260;75315;-39
2024/04/04 08:52:24;;;;;;;2.10;1.00;;;;;;;10.33;45.20;99183.12;107559;1254;67758;-39
2024/04/04 08:54:52;;;;;;;1.10;0.90;;;;;;;10.43;45.06;99186.22;107648;1254;73101;-37
2024/04/04 08:57:20;;;;;;;1.20;1.10;;;;;;;10.52;44.33;99189.16;107668;1254;61276;-38
2024/04/04 08:59:57;;;;;;;1.50;1.10;;;;;;;10.54;44.60;99191.97;107697;1254;61282;-38
2024/04/04 09:02:28;;;;;;;1.30;1.10;;;;;;;10.68;45.19;99196.69;107657;1254;74741;-38
2024/04/04 09:05:06;;;;;;;2.70;1.10;;;;;;;10.90;44.63;99199.27;107572;1252;68237;-38
2024/04/04 09:07:35;;;;;;;2.80;1.10;;;;;;;11.12;44.20;99199.66;107676;1254;72990;-38
2024/04/04 09:10:03;;;;;;;1.40;1.10;;;;;;;11.25;43.57;99191.63;107705;1254;61101;-38
2024/04/04 09:12:31;;;;;;;1.80;1.40;;;;;;;11.37;43.82;99192.40;107665;1254;61157;-38
2024/04/04 09:14:58;;;;;;;1.60;1.10;;;;;;;11.47;42.43;99194.77;107505;1253;75579;-38
2024/04/04 09:17:27;;;;;;;1.10;1.00;;;;;;;11.46;42.48;99193.61;107698;1254;66488;-38
2024/04/04 09:19:55;;;;;;;1.00;0.90;;;;;;;11.51;43.18;99198.09;107676;1257;72752;-38
2024/04/04 09:22:24;;;;;;;1.20;1.00;;;;;;;11.63;42.46;99199.86;107791;1254;60100;-38
2024/04/04 09:24:59;;;;;;;1.30;1.20;;;;;;;11.72;42.74;99203.08;106813;1254;1003677;-38
2024/04/04 09:27:38;;;;;;;1.40;1.00;;;;;;;11.90;43.31;99205.95;107497;1254;74745;-38
2024/04/04 09:30:10;;;;;;;1.20;1.00;;;;;;;12.06;42.40;99207.21;107580;1254;67225;-38
2024/04/04 09:32:37;;;;;;;1.60;1.00;;;;;;;12.12;41.57;99209.83;107506;1254;72816;-38
2024/04/04 09:35:05;;;;;;;1.10;1.00;;;;;;;12.10;41.16;99206.63;107576;1254;61267;-38
2024/04/04 09:37:33;;;;;;;2.20;1.20;;;;;;;12.09;42.02;99208.86;107500;1254;61308;-38
2024/04/04 09:40:02;;;;;;;1.30;1.10;;;;;;;12.16;41.50;99202.73;107729;1252;73828;-38
2024/04/04 09:42:29;;;;;;;1.80;1.10;;;;;;;12.28;42.20;99204.55;107575;1254;68094;-38
2024/04/04 09:44:57;;;;;;;1.60;1.10;;;;;;;12.51;41.14;99203.73;107689;1254;70820;-38
2024/04/04 09:47:25;;;;;;;1.10;1.00;;;;;;;12.64;40.82;99205.17;107674;1256;61231;-38
2024/04/04 09:49:53;;;;;;;1.10;1.00;;;;;;;12.74;41.67;99207.80;107512;1254;61064;-38
2024/04/04 09:52:21;;;;;;;1.20;1.00;;;;;;;12.95;41.21;99208.11;107698;1252;75653;-38
2024/04/04 09:54:48;;;;;;;1.60;1.10;;;;;;;13.22;40.25;99209.95;107709;1254;68103;-38
2024/04/04 09:57:16;;;;;;;1.40;1.20;;;;;;;13.36;39.32;99209.33;107720;1254;72884;-38
2024/04/04 09:59:43;;;;;;;1.40;0.90;;;;;;;13.36;39.88;99211.28;107691;1253;61218;-38
2024/04/04 10:02:10;;;;;;;1.40;1.00;;;;;;;13.46;39.83;99217.02;107695;1252;60099;-38
2024/04/04 10:04:38;;;;;;;1.30;1.10;;;;;;;13.57;39.11;99213.24;107651;1252;74762;-38
2024/04/04 10:07:05;;;;;;;1.90;1.10;;;;;;;13.69;39.29;99210.64;107668;1254;70197;-38
2024/04/04 10:09:41;;;;;;;1.70;1.10;;;;;;;13.85;39.32;99202.68;107643;1256;72407;-39
2024/04/04 10:12:10;;;;;;;1.50;1.30;;;;;;;14.06;39.29;99200.80;107685;1254;61330;-39
2024/04/04 10:14:37;;;;;;;2.00;1.10;;;;;;;14.20;38.21;99197.17;107662;1254;60261;-39
2024/04/04 10:17:05;;;;;;;1.40;1.20;;;;;;;14.18;37.88;99200.74;107647;1254;74759;-39
2024/04/04 10:19:34;;;;;;;1.30;1.10;;;;;;;14.22;38.66;99207.38;107767;1254;66500;-39
2024/04/04 10:22:02;;;;;;;1.30;1.10;;;;;;;14.36;37.73;99196.98;107592;1254;72964;-39
2024/04/04 10:24:30;;;;;;;1.60;1.10;;;;;;;14.33;37.99;99202.40;107243;1254;61227;-39
2024/04/04 10:27:07;;;;;;;1.30;1.10;;;;;;;14.32;38.39;99202.56;107618;1252;61222;-39
2024/04/04 10:29:34;;;;;;;1.10;1.00;;;;;;;14.46;38.77;99207.04;107627;1254;75136;-39
2024/04/04 10:32:07;;;;;;;1.50;1.00;;;;;;;14.70;37.80;99207.36;107666;1254;68111;-40
2024/04/04 10:34:34;;;;;;;1.60;1.30;;;;;;;14.98;37.59;99213.10;107587;1254;71486;-39
2024/04/04 10:37:03;;;;;;;1.70;1.20;;;;;;;15.23;36.48;99214.95;107581;1252;61036;-40
2024/04/04 10:39:31;;;;;;;1.50;1.20;;;;;;;15.39;36.28;99213.17;107658;1254;61206;-39
2024/04/04 10:41:59;;;;;;;1.10;1.00;;;;;;;15.49;35.79;99218.08;107617;1253;73135;-40
2024/04/04 10:44:27;;;;;;;2.50;1.20;;;;;;;15.56;36.18;99215.17;107656;1256;66590;-40
2024/04/04 10:46:56;;;;;;;1.20;1.00;;;;;;;15.67;34.79;99212.48;107675;1254;71518;-40
2024/04/04 10:49:26;;;;;;;1.50;1.10;;;;;;;15.63;35.70;99221.41;107638;1254;60353;-40
2024/04/04 10:51:58;;;;;;;2.20;1.40;;;;;;;15.72;35.16;99219.02;107684;1254;62215;-40
2024/04/04 10:54:27;;;;;;;1.00;0.90;;;;;;;15.88;35.30;99219.27;107654;1254;73116;-40
2024/04/04 10:56:55;;;;;;;1.50;0.90;;;;;;;16.11;34.64;99219.38;107698;1252;69836;-40
2024/04/04 10:59:22;;;;;;;1.30;1.00;;;;;;;16.24;34.79;99215.00;107299;1254;72784;-40
2024/04/04 11:01:51;;;;;;;1.20;1.10;;;;;;;16.30;33.66;99215.29;107683;1252;61182;-38
2024/04/04 11:04:19;;;;;;;1.30;1.00;;;;;;;16.24;34.19;99216.64;107677;1255;62178;-39
2024/04/04 11:06:48;;;;;;;1.00;0.90;;;;;;;16.27;34.63;99215.91;107575;1254;73491;-40
2024/04/04 11:09:19;;;;;;;1.20;0.90;;;;;;;16.36;33.98;99215.77;107699;1254;69807;-40
2024/04/04 11:11:49;;;;;;;3.80;1.30;;;;;;;16.42;34.18;99217.30;107616;1254;73939;-40
2024/04/04 11:14:20;;;;;;;1.10;1.00;;;;;;;16.64;33.93;99217.72;107639;1257;61253;-40
2024/04/04 11:16:49;;;;;;;0.80;0.80;;;;;;;16.88;34.16;99215.95;107737;1254;61259;-40
2024/04/04 11:19:20;;;;;;;2.20;1.10;;;;;;;17.12;33.22;99214.09;107658;1252;74994;-40
2024/04/04 11:21:47;;;;;;;1.20;1.00;;;;;;;17.29;33.19;99216.80;107678;1254;68204;-38
2024/04/04 11:24:15;;;;;;;1.30;1.10;;;;;;;17.53;33.03;99215.76;107678;1254;74875;-39
2024/04/04 11:26:44;;;;;;;1.70;0.90;;;;;;;17.79;32.30;99215.40;107596;1253;61230;-39
2024/04/04 11:29:11;;;;;;;1.20;0.80;;;;;;;18.02;32.37;99216.27;107579;1253;61045;-39
2024/04/04 11:31:39;;;;;;;1.40;1.10;;;;;;;18.32;31.25;99217.34;107662;1252;74756;-39
2024/04/04 11:34:07;;;;;;;0.70;0.70;;;;;;;18.43;30.77;99213.73;107533;1254;68310;-39
2024/04/04 11:36:34;;;;;;;0.80;0.70;;;;;;;18.26;30.29;99208.71;107677;1254;74731;-39
2024/04/04 11:39:02;;;;;;;1.00;0.90;;;;;;;18.10;31.31;99208.72;107630;1254;61113;-39